createdAt,value
2022-11-26T00:01:22.413Z,0
2022-11-26T00:05:24.729Z,0
2022-11-26T00:07:26.051Z,0
2022-11-26T00:09:27.430Z,0
2022-11-26T00:11:28.425Z,0
2022-11-26T00:13:30.205Z,0
2022-11-26T00:15:31.728Z,0
2022-11-26T00:17:33.096Z,0
2022-11-26T00:19:34.718Z,0
2022-11-26T00:21:36.180Z,0
2022-11-26T00:23:37.244Z,0.14
2022-11-26T00:24:21.112Z,0.421
2022-11-26T00:26:23.043Z,0.421
2022-11-26T00:28:24.154Z,0.28
2022-11-26T00:30:25.317Z,1.684
2022-11-26T00:32:26.495Z,0.702
2022-11-26T00:34:28.383Z,0.702
2022-11-26T00:36:29.846Z,0.421
2022-11-26T00:38:31.172Z,0
2022-11-26T00:40:32.542Z,0
2022-11-26T00:42:33.769Z,0
2022-11-26T00:44:35.749Z,1.123
2022-11-26T00:46:37.392Z,0
2022-11-26T00:48:38.471Z,0
2022-11-26T00:50:40.334Z,0
2022-11-26T00:52:42.127Z,0
2022-11-26T00:54:43.698Z,0.14
2022-11-26T00:58:46.525Z,0
2022-11-26T01:00:48.253Z,0
2022-11-26T01:02:49.670Z,0.842
2022-11-26T01:04:51.450Z,0.14
2022-11-26T01:08:54.369Z,5.756
2022-11-26T01:10:55.368Z,1.123
2022-11-26T01:12:57.193Z,1.404
2022-11-26T01:14:58.900Z,0.561
2022-11-26T01:17:00.486Z,2.667
2022-11-26T01:19:01.806Z,0
2022-11-26T01:21:03.185Z,0
2022-11-26T01:23:05.002Z,0
2022-11-26T01:25:06.666Z,0
2022-11-26T01:27:08.043Z,0
2022-11-26T01:29:09.230Z,0
2022-11-26T01:31:10.329Z,0.14
2022-11-26T01:33:11.459Z,0
2022-11-26T01:35:13.330Z,0.28
2022-11-26T01:37:15.018Z,0.421
2022-11-26T01:39:16.759Z,0
2022-11-26T01:41:18.411Z,0
2022-11-26T01:43:19.575Z,0
2022-11-26T01:45:21.314Z,0
2022-11-26T01:47:23.131Z,0
2022-11-26T01:49:24.642Z,0
2022-11-26T01:51:26.097Z,0
2022-11-26T01:53:27.584Z,0
2022-11-26T01:55:28.923Z,0
2022-11-26T01:57:30.828Z,0
2022-11-26T01:59:32.377Z,0.842
2022-11-26T02:01:33.353Z,0.28
2022-11-26T02:03:34.868Z,0
2022-11-26T02:05:36.624Z,0
2022-11-26T02:07:38.032Z,0
2022-11-26T02:09:39.942Z,0.14
2022-11-26T02:13:43.541Z,0
2022-11-26T02:15:45.388Z,0
2022-11-26T02:17:47.286Z,0
2022-11-26T02:19:49.043Z,0
2022-11-26T02:21:50.566Z,0
2022-11-26T02:23:51.982Z,0
2022-11-26T02:25:53.215Z,0.982
2022-11-26T02:27:54.654Z,0
2022-11-26T02:29:56.266Z,0.421
2022-11-26T02:31:57.776Z,0.561
2022-11-26T02:33:59.243Z,0
2022-11-26T02:36:00.279Z,0
2022-11-26T02:40:03.457Z,0
2022-11-26T02:42:04.642Z,0
2022-11-26T02:44:06.184Z,0
2022-11-26T02:46:08.173Z,0
2022-11-26T02:48:09.596Z,0
2022-11-26T02:50:11.226Z,0
2022-11-26T02:52:12.899Z,2.246
2022-11-26T02:56:15.806Z,0
2022-11-26T02:58:17.672Z,0.842
2022-11-26T03:00:19.383Z,0.561
2022-11-26T03:02:20.895Z,0.561
2022-11-26T03:06:23.493Z,0.28
2022-11-26T03:08:25.424Z,0.842
2022-11-26T03:10:26.979Z,0.982
2022-11-26T03:12:28.352Z,0.28
2022-11-26T03:14:30.206Z,0
2022-11-26T03:16:31.916Z,0
2022-11-26T03:18:33.612Z,2.106
2022-11-26T03:20:35.416Z,0.28
2022-11-26T03:22:36.430Z,0
2022-11-26T03:24:38.664Z,0
2022-11-26T03:26:39.568Z,0
2022-11-26T03:28:41.135Z,0
2022-11-26T03:30:42.901Z,0
2022-11-26T03:32:43.920Z,0
2022-11-26T03:34:45.487Z,0.702
2022-11-26T03:38:48.231Z,0.28
2022-11-26T03:40:49.392Z,0
2022-11-26T03:42:50.826Z,0
2022-11-26T03:44:52.320Z,0
2022-11-26T03:48:55.175Z,0
2022-11-26T03:50:56.768Z,0
2022-11-26T03:52:58.623Z,0
2022-11-26T03:55:00.391Z,0
2022-11-26T03:57:01.771Z,0
2022-11-26T03:59:03.000Z,0
2022-11-26T04:01:04.963Z,0
2022-11-26T04:03:06.729Z,0
2022-11-26T04:05:08.433Z,0
2022-11-26T04:07:09.517Z,0
2022-11-26T04:11:12.125Z,0
2022-11-26T04:13:13.331Z,2.106
2022-11-26T04:15:15.259Z,0.702
2022-11-26T04:17:17.187Z,0.702
2022-11-26T04:21:20.783Z,0
2022-11-26T04:23:22.395Z,0
2022-11-26T04:25:23.510Z,0
2022-11-26T04:27:24.552Z,0
2022-11-26T04:31:27.344Z,1.684
2022-11-26T04:33:28.936Z,2.386
2022-11-26T04:35:30.855Z,0
2022-11-26T04:37:32.354Z,0
2022-11-26T04:39:33.956Z,0
2022-11-26T04:41:35.848Z,0
2022-11-26T04:43:37.398Z,0
2022-11-26T04:45:38.508Z,0
2022-11-26T04:47:43.010Z,0
2022-11-26T04:49:42.467Z,0
2022-11-26T04:51:44.019Z,0
2022-11-26T04:53:45.875Z,0
2022-11-26T04:55:47.327Z,0
2022-11-26T04:57:48.371Z,0.982
2022-11-26T04:59:49.638Z,0.982
2022-11-26T05:03:52.379Z,0.561
2022-11-26T05:05:53.416Z,0
2022-11-26T05:07:54.838Z,0.421
2022-11-26T05:09:55.920Z,0
2022-11-26T05:11:57.333Z,0
2022-11-26T05:13:59.058Z,0
2022-11-26T05:16:00.455Z,0
2022-11-26T05:18:02.382Z,0
2022-11-26T05:20:03.990Z,0
2022-11-26T05:22:05.123Z,0
2022-11-26T05:24:06.249Z,0
2022-11-26T05:26:08.182Z,0.702
2022-11-26T05:28:09.740Z,0
2022-11-26T05:30:10.880Z,0
2022-11-26T05:32:12.148Z,0
2022-11-26T05:34:13.163Z,0
2022-11-26T05:36:14.774Z,0
2022-11-26T05:38:16.486Z,0
2022-11-26T05:40:18.311Z,0
2022-11-26T05:42:20.200Z,0
2022-11-26T05:44:21.299Z,0
2022-11-26T05:46:23.036Z,0
2022-11-26T05:48:24.046Z,0
2022-11-26T05:50:25.134Z,0
2022-11-26T05:52:27.157Z,0
2022-11-26T05:54:29.053Z,0
2022-11-26T05:56:30.492Z,0
2022-11-26T05:58:31.771Z,0
2022-11-26T06:00:33.698Z,0
2022-11-26T06:02:35.546Z,0
2022-11-26T06:04:37.363Z,0.14
2022-11-26T06:06:38.172Z,0
2022-11-26T06:08:40.046Z,0
2022-11-26T06:10:41.121Z,0
2022-11-26T06:12:42.809Z,0.842
2022-11-26T06:14:44.082Z,0.982
2022-11-26T06:16:45.537Z,1.123
2022-11-26T06:18:46.478Z,0
2022-11-26T06:20:48.171Z,1.825
2022-11-26T06:22:49.543Z,0.421
2022-11-26T06:24:51.127Z,1.544
2022-11-26T06:26:53.010Z,0
2022-11-26T06:28:54.563Z,0
2022-11-26T06:30:56.173Z,0
2022-11-26T06:32:57.638Z,0
2022-11-26T06:34:59.279Z,1.825
2022-11-26T06:37:00.998Z,0.561
2022-11-26T06:39:02.738Z,0
2022-11-26T06:41:04.575Z,0
2022-11-26T06:43:06.476Z,0
2022-11-26T06:45:07.458Z,0
2022-11-26T06:47:08.984Z,0
2022-11-26T06:49:10.196Z,0
2022-11-26T06:51:11.498Z,0
2022-11-26T06:55:13.801Z,0
2022-11-26T06:57:14.884Z,0
2022-11-26T06:59:16.039Z,0
2022-11-26T07:01:17.374Z,0
2022-11-26T07:03:22.467Z,0
2022-11-26T07:07:21.843Z,1.123
2022-11-26T07:09:22.952Z,1.404
2022-11-26T07:12:08.662Z,0
2022-11-26T07:14:09.979Z,0.14
2022-11-26T07:16:11.602Z,0
2022-11-26T07:18:12.977Z,0
2022-11-26T07:22:15.438Z,0
2022-11-26T07:24:17.156Z,0
2022-11-26T07:26:18.259Z,0
2022-11-26T07:28:19.986Z,0
2022-11-26T07:32:23.185Z,1.123
2022-11-26T07:34:24.986Z,0.14
2022-11-26T07:36:25.966Z,0.14
2022-11-26T07:38:27.219Z,0.561
2022-11-26T07:40:28.460Z,0
2022-11-26T07:42:29.450Z,0
2022-11-26T07:44:31.192Z,0
2022-11-26T07:46:32.573Z,0
2022-11-26T07:48:33.596Z,0
2022-11-26T07:50:35.296Z,0
2022-11-26T07:52:36.440Z,0
2022-11-26T07:54:37.852Z,0
2022-11-26T07:56:39.046Z,3.369
2022-11-26T07:58:40.246Z,1.825
2022-11-26T08:00:41.778Z,0.28
2022-11-26T08:02:43.274Z,2.667
2022-11-26T08:04:44.568Z,2.386
2022-11-26T08:06:45.969Z,3.088
2022-11-26T08:08:46.959Z,3.088
2022-11-26T08:10:48.827Z,4.212
2022-11-26T08:12:50.653Z,1.263
2022-11-26T08:14:51.683Z,2.667
2022-11-26T08:16:53.487Z,1.263
2022-11-26T08:18:55.099Z,0.982
2022-11-26T08:20:56.804Z,0.561
2022-11-26T08:22:58.499Z,2.386
2022-11-26T08:24:59.611Z,2.246
2022-11-26T08:27:01.542Z,1.825
2022-11-26T08:29:03.203Z,2.386
2022-11-26T08:31:04.220Z,1.123
2022-11-26T08:33:05.873Z,2.386
2022-11-26T08:35:07.466Z,0
2022-11-26T08:37:08.897Z,0
2022-11-26T08:39:10.398Z,0.702
2022-11-26T08:41:12.115Z,0
2022-11-26T08:43:13.809Z,0
2022-11-26T08:45:15.430Z,0
2022-11-26T08:47:16.403Z,0
2022-11-26T08:49:18.145Z,0
2022-11-26T08:51:19.608Z,0
2022-11-26T08:53:20.467Z,0
2022-11-26T08:55:24.002Z,0
2022-11-26T08:57:24.096Z,0.842
2022-11-26T08:59:25.388Z,1.123
2022-11-26T09:03:28.701Z,0.14
2022-11-26T09:05:30.558Z,0.14
2022-11-26T09:07:31.642Z,1.404
2022-11-26T09:09:32.761Z,0
2022-11-26T09:13:35.843Z,0.421
2022-11-26T09:15:36.949Z,2.106
2022-11-26T09:17:38.278Z,0
2022-11-26T09:19:39.825Z,1.404
2022-11-26T09:21:41.702Z,0
2022-11-26T09:23:43.683Z,0.421
2022-11-26T09:25:45.531Z,0.14
2022-11-26T09:27:46.853Z,0
2022-11-26T09:29:48.362Z,0
2022-11-26T09:32:15.836Z,0
2022-11-26T09:33:50.811Z,0
2022-11-26T09:35:52.522Z,0
2022-11-26T09:37:54.157Z,2.527
2022-11-26T09:39:56.083Z,2.808
2022-11-26T09:41:57.713Z,6.318
2022-11-26T09:46:00.499Z,5.194
2022-11-26T09:48:02.313Z,3.088
2022-11-26T09:50:03.574Z,1.684
2022-11-26T09:52:04.918Z,1.123
2022-11-26T09:56:08.084Z,0.561
2022-11-26T09:58:09.728Z,0.842
2022-11-26T10:00:11.261Z,1.404
2022-11-26T10:02:12.635Z,1.825
2022-11-26T10:04:13.907Z,0.561
2022-11-26T10:06:15.456Z,1.263
2022-11-26T10:08:16.825Z,0.702
2022-11-26T10:10:18.397Z,1.404
2022-11-26T10:12:25.327Z,2.106
2022-11-26T10:14:21.512Z,0.702
2022-11-26T10:18:24.506Z,1.825
2022-11-26T10:20:25.591Z,0.702
2022-11-26T10:22:26.810Z,0.842
2022-11-26T10:24:28.267Z,0.842
2022-11-26T10:28:30.947Z,0
2022-11-26T10:30:32.582Z,1.123
2022-11-26T10:32:33.819Z,0
2022-11-26T10:34:38.899Z,0.982
2022-11-26T10:38:38.209Z,3.369
2022-11-26T10:40:39.301Z,0.842
2022-11-26T10:42:40.900Z,0.702
2022-11-26T10:44:42.868Z,1.404
2022-11-26T10:46:44.504Z,1.263
2022-11-26T10:48:46.134Z,1.544
2022-11-26T10:50:47.994Z,1.123
2022-11-26T10:52:48.521Z,0.28
2022-11-26T10:54:50.160Z,1.123
2022-11-26T10:56:51.239Z,0
2022-11-26T10:58:52.286Z,1.263
2022-11-26T11:00:54.103Z,1.404
2022-11-26T11:02:55.915Z,0
2022-11-26T11:04:57.431Z,0
2022-11-26T11:06:58.452Z,1.825
2022-11-26T11:08:59.672Z,0.842
2022-11-26T11:11:01.084Z,3.931
2022-11-26T11:13:02.077Z,1.544
2022-11-26T11:15:03.782Z,3.51
2022-11-26T11:17:05.039Z,4.773
2022-11-26T11:19:06.846Z,4.071
2022-11-26T11:21:08.390Z,2.527
2022-11-26T11:23:09.268Z,5.335
2022-11-26T11:25:10.925Z,3.79
2022-11-26T11:27:12.452Z,3.51
2022-11-26T11:29:13.652Z,2.527
2022-11-26T11:31:15.025Z,1.123
2022-11-26T11:33:16.030Z,0
2022-11-26T11:37:18.796Z,1.825
2022-11-26T11:39:19.857Z,4.352
2022-11-26T11:41:21.368Z,0.702
2022-11-26T11:43:22.629Z,1.965
2022-11-26T11:45:24.464Z,0.14
2022-11-26T11:47:26.264Z,2.527
2022-11-26T11:49:27.762Z,1.263
2022-11-26T11:51:28.760Z,2.948
2022-11-26T11:53:30.010Z,2.386
2022-11-26T11:55:31.044Z,3.79
2022-11-26T11:57:40.812Z,2.948
2022-11-26T11:59:34.411Z,3.369
2022-11-26T12:01:36.325Z,3.229
2022-11-26T12:03:38.173Z,2.246
2022-11-26T12:05:39.839Z,2.948
2022-11-26T12:09:43.029Z,3.229
2022-11-26T12:11:44.700Z,0.28
2022-11-26T12:13:46.183Z,0.982
2022-11-26T12:15:47.904Z,2.527
2022-11-26T12:19:50.694Z,1.123
2022-11-26T12:21:52.108Z,0
2022-11-26T12:23:53.898Z,2.948
2022-11-26T12:25:55.313Z,2.106
2022-11-26T12:27:56.807Z,5.194
2022-11-26T12:29:57.801Z,5.616
2022-11-26T12:31:59.611Z,4.071
2022-11-26T12:34:05.553Z,5.896
2022-11-26T12:36:02.545Z,3.369
2022-11-26T12:38:04.096Z,4.773
2022-11-26T12:40:05.287Z,5.896
2022-11-26T12:42:07.051Z,0
2022-11-26T12:44:08.469Z,7.3
2022-11-26T12:46:10.508Z,3.088
2022-11-26T12:48:11.707Z,3.229
2022-11-26T12:52:15.037Z,0.561
2022-11-26T12:54:16.803Z,2.667
2022-11-26T12:56:17.986Z,5.896
2022-11-26T12:58:19.601Z,4.352
2022-11-26T13:02:22.844Z,1.684
2022-11-26T13:04:37.467Z,6.037
2022-11-26T13:06:26.013Z,3.369
2022-11-26T13:08:27.615Z,4.071
2022-11-26T13:10:29.477Z,3.931
2022-11-26T13:12:30.579Z,4.773
2022-11-26T13:14:31.873Z,0.842
2022-11-26T13:16:33.156Z,5.896
2022-11-26T13:18:34.483Z,6.037
2022-11-26T13:20:35.579Z,6.879
2022-11-26T13:22:37.397Z,1.684
2022-11-26T13:24:38.851Z,3.79
2022-11-26T13:26:39.552Z,2.948
2022-11-26T13:28:40.847Z,4.352
2022-11-26T13:30:41.952Z,2.246
2022-11-26T13:34:44.422Z,2.667
2022-11-26T13:36:45.786Z,5.896
2022-11-26T13:38:47.752Z,1.684
2022-11-26T13:40:49.224Z,2.386
2022-11-26T13:44:52.121Z,0.561
2022-11-26T13:46:53.340Z,2.948
2022-11-26T13:48:55.135Z,1.544
2022-11-26T13:50:56.672Z,0.702
2022-11-26T13:52:58.445Z,1.544
2022-11-26T13:55:00.127Z,1.404
2022-11-26T13:55:43.945Z,1.544
2022-11-26T13:57:45.681Z,2.246
2022-11-26T13:59:47.344Z,2.527
2022-11-26T14:01:48.620Z,2.106
2022-11-26T14:03:49.794Z,1.263
2022-11-26T14:05:51.306Z,2.386
2022-11-26T14:07:52.714Z,4.492
2022-11-26T14:09:53.717Z,5.194
2022-11-26T14:11:55.554Z,3.65
2022-11-26T14:13:57.374Z,1.684
2022-11-26T14:15:58.461Z,1.263
2022-11-26T14:18:00.173Z,1.544
2022-11-26T14:20:01.640Z,2.667
2022-11-26T14:22:03.451Z,2.808
2022-11-26T14:24:04.648Z,3.51
2022-11-26T14:26:06.471Z,5.054
2022-11-26T14:28:08.208Z,4.352
2022-11-26T14:30:10.156Z,1.123
2022-11-26T14:32:11.883Z,2.948
2022-11-26T14:34:13.446Z,5.054
2022-11-26T14:36:14.441Z,2.527
2022-11-26T14:38:16.099Z,0.421
2022-11-26T14:40:17.091Z,3.931
2022-11-26T14:42:18.755Z,0.842
2022-11-26T14:44:20.016Z,0.982
2022-11-26T14:46:21.957Z,0
2022-11-26T14:48:23.595Z,6.037
2022-11-26T14:50:24.743Z,2.667
2022-11-26T14:52:26.467Z,2.246
2022-11-26T14:54:27.947Z,1.825
2022-11-26T14:56:29.442Z,2.948
2022-11-26T14:58:30.796Z,5.335
2022-11-26T15:00:32.685Z,3.51
2022-11-26T15:02:34.513Z,5.616
2022-11-26T15:04:35.491Z,4.914
2022-11-26T15:06:36.655Z,3.369
2022-11-26T15:08:37.760Z,1.684
2022-11-26T15:10:39.655Z,2.808
2022-11-26T15:12:41.523Z,3.931
2022-11-26T15:14:43.259Z,2.808
2022-11-26T15:16:44.670Z,3.229
2022-11-26T15:18:46.189Z,2.948
2022-11-26T15:20:47.229Z,2.808
2022-11-26T15:22:48.496Z,0.702
2022-11-26T15:24:50.025Z,3.088
2022-11-26T15:26:51.322Z,0.14
2022-11-26T15:28:53.258Z,2.527
2022-11-26T15:30:54.854Z,1.684
2022-11-26T15:32:56.211Z,0
2022-11-26T15:34:57.491Z,0.561
2022-11-26T15:36:58.521Z,1.123
2022-11-26T15:39:00.167Z,0.842
2022-11-26T15:41:01.729Z,0
2022-11-26T15:43:02.877Z,0.561
2022-11-26T15:45:04.696Z,0
2022-11-26T15:47:06.232Z,0
2022-11-26T15:49:07.538Z,0
2022-11-26T15:53:10.497Z,0
2022-11-26T15:55:15.481Z,0
2022-11-26T15:57:13.332Z,0
2022-11-26T15:59:14.956Z,0
2022-11-26T16:03:17.523Z,0.14
2022-11-26T16:05:18.576Z,0.842
2022-11-26T16:07:20.345Z,0.421
2022-11-26T16:09:24.791Z,1.123
2022-11-26T16:11:22.967Z,0.702
2022-11-26T16:13:24.398Z,0.561
2022-11-26T16:15:26.057Z,0
2022-11-26T16:17:27.148Z,0
2022-11-26T16:19:28.890Z,0
2022-11-26T16:21:29.843Z,0
2022-11-26T16:23:31.298Z,0
2022-11-26T16:25:32.414Z,0
2022-11-26T16:27:34.132Z,0
2022-11-26T16:29:35.611Z,0
2022-11-26T16:31:37.003Z,0
2022-11-26T16:35:45.568Z,0.702
2022-11-26T16:37:41.243Z,0.28
2022-11-26T16:39:43.056Z,0.28
2022-11-26T16:41:45.039Z,0.28
2022-11-26T16:45:47.825Z,2.106
2022-11-26T16:47:49.620Z,1.263
2022-11-26T16:49:50.793Z,0.14
2022-11-26T16:51:52.499Z,0
2022-11-26T16:53:54.482Z,0.561
2022-11-26T16:55:56.411Z,0.14
2022-11-26T16:57:58.191Z,1.684
2022-11-26T16:59:59.346Z,1.684
2022-11-26T17:02:00.600Z,0.561
2022-11-26T17:04:01.898Z,0.421
2022-11-26T17:08:05.188Z,1.123
2022-11-26T17:10:06.644Z,0
2022-11-26T17:12:08.102Z,1.684
2022-11-26T17:14:09.385Z,1.825
2022-11-26T17:18:12.434Z,0.842
2022-11-26T17:20:13.656Z,0
2022-11-26T17:22:14.966Z,0.842
2022-11-26T17:24:19.056Z,0.702
2022-11-26T17:28:19.985Z,0.842
2022-11-26T17:30:21.834Z,0.561
2022-11-26T17:32:23.641Z,0
2022-11-26T17:34:25.020Z,0
2022-11-26T17:36:26.780Z,0.14
2022-11-26T17:38:28.544Z,0
2022-11-26T17:40:30.145Z,0
2022-11-26T17:42:36.407Z,0
2022-11-26T17:44:33.151Z,0
2022-11-26T17:46:42.953Z,0
2022-11-26T17:48:35.849Z,0
2022-11-26T17:50:37.812Z,0
2022-11-26T17:52:39.018Z,0
2022-11-26T17:54:40.429Z,0
2022-11-26T17:56:42.076Z,0
2022-11-26T18:00:45.202Z,0
2022-11-26T18:02:46.632Z,0
2022-11-26T18:04:47.685Z,0
2022-11-26T18:06:49.084Z,0
2022-11-26T18:08:50.486Z,1.965
2022-11-26T18:10:51.893Z,1.825
2022-11-26T18:12:53.489Z,0
2022-11-26T18:14:54.869Z,2.386
2022-11-26T18:16:56.203Z,0.14
2022-11-26T18:18:58.080Z,0
2022-11-26T18:20:59.652Z,0.561
2022-11-26T18:23:00.932Z,0.14
2022-11-26T18:25:02.913Z,0
2022-11-26T18:27:04.661Z,0
2022-11-26T18:29:05.957Z,0
2022-11-26T18:31:07.114Z,0
2022-11-26T18:33:09.055Z,0
2022-11-26T18:35:10.279Z,0
2022-11-26T18:37:11.778Z,0
2022-11-26T18:39:12.837Z,0
2022-11-26T18:41:13.955Z,0
2022-11-26T18:43:15.157Z,0
2022-11-26T18:45:16.311Z,0
2022-11-26T18:47:17.415Z,0
2022-11-26T18:49:18.919Z,0
2022-11-26T18:51:20.159Z,0
2022-11-26T18:53:21.566Z,0
2022-11-26T18:55:23.440Z,0
2022-11-26T18:59:26.316Z,0
2022-11-26T19:01:28.391Z,0
2022-11-26T19:03:29.390Z,2.106
2022-11-26T19:05:30.505Z,0.561
2022-11-26T19:07:31.671Z,0
2022-11-26T19:09:33.149Z,0.421
2022-11-26T19:11:34.178Z,2.246
2022-11-26T19:13:35.839Z,0.561
2022-11-26T19:15:37.474Z,0.28
2022-11-26T19:17:38.573Z,0
2022-11-26T19:19:40.378Z,0
2022-11-26T19:21:41.394Z,0.702
2022-11-26T19:23:43.293Z,0
2022-11-26T19:25:44.995Z,0
2022-11-26T19:27:46.175Z,0
2022-11-26T19:31:49.341Z,0
2022-11-26T19:33:51.055Z,1.544
2022-11-26T19:35:52.888Z,0
2022-11-26T19:37:54.713Z,0
2022-11-26T19:39:56.667Z,0
2022-11-26T19:41:58.686Z,0
2022-11-26T19:44:00.109Z,0
2022-11-26T19:46:01.933Z,0
2022-11-26T19:48:03.711Z,0
2022-11-26T19:50:04.777Z,0
2022-11-26T19:52:06.384Z,0
2022-11-26T19:54:07.592Z,0
2022-11-26T19:56:08.609Z,0
2022-11-26T19:58:10.471Z,0
2022-11-26T20:00:11.722Z,0
2022-11-26T20:02:13.171Z,0
2022-11-26T20:04:14.215Z,0
2022-11-26T20:06:15.370Z,0
2022-11-26T20:08:16.722Z,0
2022-11-26T20:10:18.356Z,0.421
2022-11-26T20:14:20.808Z,0
2022-11-26T20:16:22.263Z,0
2022-11-26T20:18:23.430Z,0
2022-11-26T20:20:24.787Z,0.14
2022-11-26T20:24:28.136Z,0
2022-11-26T20:26:29.357Z,0
2022-11-26T20:28:30.806Z,0
2022-11-26T20:30:32.066Z,0
2022-11-26T20:32:33.049Z,0
2022-11-26T20:34:34.881Z,0
2022-11-26T20:36:36.209Z,0
2022-11-26T20:38:37.964Z,0
2022-11-26T20:40:39.211Z,0
2022-11-26T20:41:23.081Z,0
2022-11-26T20:43:24.875Z,0
2022-11-26T20:45:26.762Z,0
2022-11-26T20:47:28.659Z,0
2022-11-26T20:49:34.061Z,0
2022-11-26T20:51:32.389Z,0
2022-11-26T20:53:34.036Z,0.842
2022-11-26T20:55:36.044Z,0
2022-11-26T20:57:37.271Z,0.702
2022-11-26T20:59:38.791Z,2.246
2022-11-26T21:01:40.545Z,1.544
2022-11-26T21:03:41.926Z,0
2022-11-26T21:05:43.149Z,0
2022-11-26T21:07:44.549Z,0
2022-11-26T21:09:46.278Z,1.123
2022-11-26T21:11:47.651Z,0.14
2022-11-26T21:13:48.755Z,0
2022-11-26T21:15:50.012Z,0
2022-11-26T21:17:51.231Z,0
2022-11-26T21:19:52.883Z,0
2022-11-26T21:21:54.510Z,0
2022-11-26T21:23:56.007Z,0
2022-11-26T21:25:57.428Z,0
2022-11-26T21:30:01.113Z,0
2022-11-26T21:32:02.875Z,0
2022-11-26T21:34:04.627Z,0
2022-11-26T21:36:05.915Z,0
2022-11-26T21:38:07.321Z,0
2022-11-26T21:40:09.061Z,0
2022-11-26T21:42:10.399Z,0
2022-11-26T21:44:11.720Z,0.28
2022-11-26T21:46:13.648Z,0
2022-11-26T21:48:15.631Z,0
2022-11-26T21:50:16.728Z,0
2022-11-26T21:52:18.452Z,0
2022-11-26T21:54:20.339Z,0
2022-11-26T21:56:21.969Z,0
2022-11-26T21:58:23.142Z,0
2022-11-26T22:00:24.749Z,0
2022-11-26T22:02:26.328Z,0
2022-11-26T22:04:28.297Z,0
2022-11-26T22:06:29.473Z,0
2022-11-26T22:08:30.917Z,0
2022-11-26T22:10:36.038Z,0
2022-11-26T22:12:34.352Z,0
2022-11-26T22:14:36.331Z,0
2022-11-26T22:16:37.714Z,1.123
2022-11-26T22:18:39.227Z,1.263
2022-11-26T22:20:41.018Z,2.948
2022-11-26T22:22:42.476Z,1.965
2022-11-26T22:24:43.566Z,0.28
2022-11-26T22:26:44.896Z,0
2022-11-26T22:28:46.132Z,0.982
2022-11-26T22:30:47.756Z,0
2022-11-26T22:32:49.127Z,0.421
2022-11-26T22:34:50.835Z,0
2022-11-26T22:36:52.431Z,0
2022-11-26T22:38:54.401Z,0
2022-11-26T22:40:55.643Z,0
2022-11-26T22:42:57.298Z,0
2022-11-26T22:44:58.406Z,0
2022-11-26T22:46:59.524Z,0
2022-11-26T22:49:01.415Z,0
2022-11-26T22:51:02.841Z,0
2022-11-26T22:53:04.584Z,0
2022-11-26T22:55:06.107Z,0
2022-11-26T22:57:07.516Z,0
2022-11-26T22:59:09.233Z,0
2022-11-26T23:01:10.355Z,0
2022-11-26T23:03:12.322Z,0
2022-11-26T23:05:13.684Z,0
2022-11-26T23:07:15.704Z,0
2022-11-26T23:09:16.731Z,0
2022-11-26T23:11:18.248Z,0
2022-11-26T23:15:21.532Z,0
2022-11-26T23:17:23.109Z,0
2022-11-26T23:19:24.845Z,0
2022-11-26T23:21:26.390Z,0
2022-11-26T23:25:29.324Z,0
2022-11-26T23:27:31.152Z,0
2022-11-26T23:29:32.920Z,0
2022-11-26T23:31:34.105Z,0
2022-11-26T23:33:35.642Z,0
2022-11-26T23:35:37.187Z,0
2022-11-26T23:37:38.414Z,0
2022-11-26T23:39:40.106Z,0
2022-11-26T23:41:41.669Z,0
2022-11-26T23:43:43.115Z,0
2022-11-26T23:45:44.285Z,0
2022-11-26T23:47:46.067Z,0
2022-11-26T23:49:47.168Z,0
2022-11-26T23:51:48.872Z,0
2022-11-26T23:53:50.177Z,0
2022-11-26T23:57:53.219Z,0
2022-11-26T23:59:54.498Z,0
